createdAt,value
2022-12-20T00:00:00.606Z,521.15
2022-12-20T00:00:11.582Z,521.13
2022-12-20T00:00:22.551Z,521.04
2022-12-20T00:00:33.621Z,521.03
2022-12-20T00:00:44.574Z,521.01
2022-12-20T00:00:55.569Z,520.87
2022-12-20T00:01:06.546Z,520.76
2022-12-20T00:01:17.620Z,520.51
2022-12-20T00:01:28.672Z,520.60
2022-12-20T00:01:39.597Z,520.68
2022-12-20T00:01:50.843Z,520.58
2022-12-20T00:02:02.695Z,520.73
2022-12-20T00:02:13.692Z,520.75
2022-12-20T00:02:24.700Z,520.68
2022-12-20T00:02:36.733Z,520.54
2022-12-20T00:02:48.643Z,520.66
2022-12-20T00:02:59.675Z,520.90
2022-12-20T00:03:11.606Z,521.09
2022-12-20T00:03:22.632Z,521.19
2022-12-20T00:03:34.597Z,521.23
2022-12-20T00:03:45.585Z,521.22
2022-12-20T00:03:56.579Z,521.22
2022-12-20T00:04:07.652Z,521.07
2022-12-20T00:04:19.599Z,520.85
2022-12-20T00:04:30.557Z,520.83
2022-12-20T00:04:41.674Z,520.93
2022-12-20T00:04:53.605Z,521.01
2022-12-20T00:05:04.566Z,521.08
2022-12-20T00:05:16.579Z,521.30
2022-12-20T00:05:27.563Z,521.37
2022-12-20T00:05:38.640Z,521.52
2022-12-20T00:05:50.585Z,521.59
2022-12-20T00:06:01.551Z,521.46
2022-12-20T00:06:12.623Z,521.38
2022-12-20T00:06:23.584Z,521.33
2022-12-20T00:06:34.566Z,521.30
2022-12-20T00:06:45.632Z,521.42
2022-12-20T00:06:57.560Z,521.43
2022-12-20T00:07:08.522Z,521.43
2022-12-20T00:07:19.620Z,521.26
2022-12-20T00:07:30.617Z,521.18
2022-12-20T00:07:41.603Z,521.07
2022-12-20T00:07:52.566Z,521.15
2022-12-20T00:08:03.637Z,521.10
2022-12-20T00:08:15.620Z,520.93
2022-12-20T00:08:26.603Z,520.81
2022-12-20T00:08:37.579Z,520.74
2022-12-20T00:08:48.544Z,520.86
2022-12-20T00:08:59.613Z,520.91
2022-12-20T00:09:10.593Z,521.02
2022-12-20T00:09:21.560Z,521.12
2022-12-20T00:09:32.546Z,520.97
2022-12-20T00:09:43.555Z,521.05
2022-12-20T00:09:54.623Z,521.18
2022-12-20T00:10:05.583Z,521.15
2022-12-20T00:10:16.563Z,521.10
2022-12-20T00:10:27.559Z,521.19
2022-12-20T00:10:38.624Z,521.23
2022-12-20T00:10:49.584Z,521.35
2022-12-20T00:11:00.554Z,521.42
2022-12-20T00:11:11.571Z,521.40
2022-12-20T00:11:22.596Z,521.52
2022-12-20T00:11:33.579Z,521.64
2022-12-20T00:11:44.558Z,521.66
2022-12-20T00:11:55.625Z,521.55
2022-12-20T00:12:07.575Z,521.70
2022-12-20T00:12:18.645Z,521.72
2022-12-20T00:12:30.568Z,521.93
2022-12-20T00:12:41.564Z,522.02
2022-12-20T00:12:52.578Z,522.04
2022-12-20T00:13:03.554Z,521.99
2022-12-20T00:13:14.552Z,521.99
2022-12-20T00:13:25.633Z,521.90
2022-12-20T00:13:36.602Z,521.83
2022-12-20T00:13:47.582Z,521.73
2022-12-20T00:13:58.555Z,521.55
2022-12-20T00:14:09.543Z,521.42
2022-12-20T00:14:20.662Z,521.48
2022-12-20T00:14:32.621Z,521.47
2022-12-20T00:14:44.560Z,521.54
2022-12-20T00:14:55.629Z,521.44
2022-12-20T00:15:06.595Z,521.38
2022-12-20T00:15:17.563Z,521.38
2022-12-20T00:15:28.574Z,521.29
2022-12-20T00:15:39.542Z,521.12
2022-12-20T00:15:50.621Z,521.11
2022-12-20T00:16:01.599Z,521.35
2022-12-20T00:16:12.596Z,521.46
2022-12-20T00:16:23.588Z,521.54
2022-12-20T00:16:34.566Z,521.70
2022-12-20T00:16:45.635Z,521.89
2022-12-20T00:16:57.632Z,522.08
2022-12-20T00:17:09.587Z,522.01
2022-12-20T00:17:20.599Z,522.22
2022-12-20T00:17:31.620Z,522.23
2022-12-20T00:17:43.679Z,522.38
2022-12-20T00:17:55.647Z,522.58
2022-12-20T00:18:06.614Z,522.69
2022-12-20T00:18:17.697Z,522.68
2022-12-20T00:18:29.540Z,522.73
2022-12-20T00:18:40.631Z,522.74
2022-12-20T00:18:51.590Z,522.74
2022-12-20T00:19:02.602Z,522.73
2022-12-20T00:19:13.578Z,522.75
2022-12-20T00:19:24.546Z,522.79
2022-12-20T00:19:35.610Z,522.93
2022-12-20T00:19:46.588Z,522.90
2022-12-20T00:19:57.547Z,522.80
2022-12-20T00:20:08.613Z,522.64
2022-12-20T00:20:19.595Z,522.71
2022-12-20T00:20:30.572Z,522.77
2022-12-20T00:20:41.621Z,522.72
2022-12-20T00:20:53.569Z,522.73
2022-12-20T00:21:04.627Z,522.74
2022-12-20T00:21:16.577Z,522.55
2022-12-20T00:21:27.580Z,522.66
2022-12-20T00:21:38.654Z,522.63
2022-12-20T00:21:50.581Z,522.65
2022-12-20T00:22:02.607Z,522.83
2022-12-20T00:22:13.578Z,522.82
2022-12-20T00:22:24.646Z,522.71
2022-12-20T00:22:36.580Z,522.69
2022-12-20T00:22:47.575Z,522.93
2022-12-20T00:22:58.650Z,522.95
2022-12-20T00:23:10.594Z,522.90
2022-12-20T00:23:22.610Z,523.02
2022-12-20T00:23:33.596Z,522.84
2022-12-20T00:23:44.566Z,522.88
2022-12-20T00:23:55.566Z,523.06
2022-12-20T00:24:06.660Z,522.99
2022-12-20T00:24:23.878Z,523.06
2022-12-20T00:24:30.583Z,523.10
2022-12-20T00:24:40.622Z,522.88
2022-12-20T00:24:51.589Z,522.87
2022-12-20T00:25:02.655Z,522.89
2022-12-20T00:25:14.574Z,522.80
2022-12-20T00:25:25.658Z,522.81
2022-12-20T00:25:37.586Z,522.82
2022-12-20T00:25:48.562Z,522.75
2022-12-20T00:25:59.556Z,522.71
2022-12-20T00:26:10.619Z,522.55
2022-12-20T00:26:22.644Z,522.58
2022-12-20T00:26:33.609Z,522.62
2022-12-20T00:26:44.576Z,522.47
2022-12-20T00:26:56.585Z,522.42
2022-12-20T00:27:07.561Z,522.37
2022-12-20T00:27:18.640Z,522.48
2022-12-20T00:27:30.585Z,522.62
2022-12-20T00:27:41.687Z,522.54
2022-12-20T00:27:53.643Z,522.56
2022-12-20T00:28:04.595Z,522.86
2022-12-20T00:28:15.589Z,522.73
2022-12-20T00:28:26.648Z,522.65
2022-12-20T00:28:38.591Z,522.64
2022-12-20T00:28:49.666Z,522.72
2022-12-20T00:29:01.648Z,522.89
2022-12-20T00:29:12.603Z,522.88
2022-12-20T00:29:23.584Z,522.92
2022-12-20T00:29:34.565Z,523.01
2022-12-20T00:29:45.624Z,522.98
2022-12-20T00:29:56.588Z,522.96
2022-12-20T00:30:07.571Z,523.01
2022-12-20T00:30:18.665Z,523.11
2022-12-20T00:30:30.584Z,523.07
2022-12-20T00:30:41.569Z,522.72
2022-12-20T00:30:52.636Z,522.64
2022-12-20T00:31:03.626Z,522.38
2022-12-20T00:31:15.656Z,522.33
2022-12-20T00:31:27.633Z,522.50
2022-12-20T00:31:38.717Z,522.61
2022-12-20T00:31:50.654Z,522.93
2022-12-20T00:32:01.705Z,522.70
2022-12-20T00:32:12.606Z,522.67
2022-12-20T00:32:23.564Z,522.81
2022-12-20T00:32:34.635Z,522.98
2022-12-20T00:32:45.617Z,523.10
2022-12-20T00:32:56.587Z,523.21
2022-12-20T00:33:07.557Z,523.33
2022-12-20T00:33:18.640Z,523.39
2022-12-20T00:33:29.599Z,523.73
2022-12-20T00:33:40.563Z,523.77
2022-12-20T00:33:51.634Z,523.64
2022-12-20T00:34:02.625Z,523.59
2022-12-20T00:34:13.582Z,523.64
2022-12-20T00:34:24.556Z,523.62
2022-12-20T00:34:35.565Z,523.49
2022-12-20T00:34:46.625Z,523.37
2022-12-20T00:34:57.586Z,523.24
2022-12-20T00:35:09.609Z,523.13
2022-12-20T00:35:20.575Z,523.08
2022-12-20T00:35:32.654Z,523.16
2022-12-20T00:35:43.611Z,523.25
2022-12-20T00:35:54.589Z,522.99
2022-12-20T00:36:05.585Z,523.23
2022-12-20T00:36:16.643Z,523.06
2022-12-20T00:36:27.648Z,522.93
2022-12-20T00:36:39.589Z,522.83
2022-12-20T00:36:50.562Z,522.96
2022-12-20T00:37:01.642Z,522.82
2022-12-20T00:37:12.612Z,522.50
2022-12-20T00:37:23.612Z,522.42
2022-12-20T00:37:34.588Z,522.50
2022-12-20T00:37:45.641Z,522.66
2022-12-20T00:37:56.606Z,522.79
2022-12-20T00:38:07.565Z,522.86
2022-12-20T00:38:19.581Z,523.07
2022-12-20T00:38:30.585Z,523.38
2022-12-20T00:38:41.644Z,523.32
2022-12-20T00:38:53.654Z,523.35
2022-12-20T00:39:05.583Z,523.36
2022-12-20T00:39:16.568Z,523.43
2022-12-20T00:39:27.641Z,523.26
2022-12-20T00:39:38.618Z,523.29
2022-12-20T00:39:49.584Z,523.40
2022-12-20T00:40:00.584Z,523.31
2022-12-20T00:40:11.576Z,523.31
2022-12-20T00:40:22.569Z,523.18
2022-12-20T00:40:34.595Z,523.16
2022-12-20T00:40:45.563Z,523.19
2022-12-20T00:40:56.575Z,523.28
2022-12-20T00:41:07.686Z,523.30
2022-12-20T00:41:19.633Z,523.38
2022-12-20T00:41:30.674Z,523.39
2022-12-20T00:41:41.577Z,523.53
2022-12-20T00:41:52.567Z,523.52
2022-12-20T00:42:03.636Z,523.45
2022-12-20T00:42:14.596Z,523.50
2022-12-20T00:42:25.568Z,523.71
2022-12-20T00:42:36.592Z,523.72
2022-12-20T00:42:47.574Z,523.70
2022-12-20T00:42:58.652Z,523.81
2022-12-20T00:43:10.580Z,523.83
2022-12-20T00:43:21.648Z,523.82
2022-12-20T00:43:33.615Z,523.94
2022-12-20T00:43:44.587Z,523.81
2022-12-20T00:43:55.584Z,523.63
2022-12-20T00:44:06.585Z,523.58
2022-12-20T00:44:17.558Z,523.71
2022-12-20T00:44:28.638Z,523.92
2022-12-20T00:44:40.571Z,523.83
2022-12-20T00:44:51.619Z,523.71
2022-12-20T00:45:02.624Z,523.72
2022-12-20T00:45:13.592Z,523.76
2022-12-20T00:45:24.578Z,523.90
2022-12-20T00:45:35.656Z,524.10
2022-12-20T00:45:47.609Z,524.13
2022-12-20T00:45:58.569Z,523.88
2022-12-20T00:46:09.634Z,523.89
2022-12-20T00:46:20.697Z,523.82
2022-12-20T00:46:32.659Z,524.16
2022-12-20T00:46:43.689Z,524.07
2022-12-20T00:46:55.685Z,524.10
2022-12-20T00:47:07.706Z,524.32
2022-12-20T00:47:18.677Z,524.30
2022-12-20T00:47:29.587Z,524.40
2022-12-20T00:47:40.651Z,524.38
2022-12-20T00:47:52.584Z,524.37
2022-12-20T00:48:03.582Z,524.59
2022-12-20T00:48:14.576Z,524.59
2022-12-20T00:48:25.651Z,524.48
2022-12-20T00:48:36.616Z,524.55
2022-12-20T00:48:47.585Z,524.57
2022-12-20T00:48:58.575Z,524.77
2022-12-20T00:49:09.631Z,524.80
2022-12-20T00:49:20.613Z,524.76
2022-12-20T00:49:31.576Z,524.78
2022-12-20T00:49:42.557Z,524.96
2022-12-20T00:49:53.657Z,524.93
2022-12-20T00:50:05.614Z,524.85
2022-12-20T00:50:16.586Z,524.87
2022-12-20T00:50:27.559Z,525.02
2022-12-20T00:50:38.625Z,524.97
2022-12-20T00:50:49.612Z,525.06
2022-12-20T00:51:00.570Z,525.05
2022-12-20T00:51:11.637Z,525.11
2022-12-20T00:51:22.604Z,525.26
2022-12-20T00:51:33.575Z,525.28
2022-12-20T00:51:44.570Z,525.28
2022-12-20T00:51:55.639Z,525.53
2022-12-20T00:52:07.585Z,525.44
2022-12-20T00:52:18.661Z,525.30
2022-12-20T00:52:30.585Z,525.26
2022-12-20T00:52:41.562Z,525.12
2022-12-20T00:52:52.632Z,525.35
2022-12-20T00:53:04.572Z,525.38
2022-12-20T00:53:18.835Z,525.45
2022-12-20T00:53:27.572Z,525.52
2022-12-20T00:53:37.594Z,525.46
2022-12-20T00:53:48.564Z,525.46
2022-12-20T00:53:59.632Z,525.43
2022-12-20T00:54:10.595Z,525.62
2022-12-20T00:54:21.573Z,525.63
2022-12-20T00:54:32.634Z,525.42
2022-12-20T00:54:43.589Z,525.36
2022-12-20T00:54:54.564Z,525.30
2022-12-20T00:55:06.577Z,525.32
2022-12-20T00:55:17.550Z,525.33
2022-12-20T00:55:28.629Z,525.33
2022-12-20T00:55:40.650Z,525.36
2022-12-20T00:55:52.619Z,525.60
2022-12-20T00:56:04.648Z,525.75
2022-12-20T00:56:15.611Z,525.79
2022-12-20T00:56:26.589Z,525.91
2022-12-20T00:56:37.563Z,525.78
2022-12-20T00:56:48.652Z,525.73
2022-12-20T00:57:00.606Z,525.71
2022-12-20T00:57:11.566Z,525.73
2022-12-20T00:57:22.639Z,525.50
2022-12-20T00:57:33.605Z,525.36
2022-12-20T00:57:44.575Z,525.32
2022-12-20T00:57:55.651Z,525.27
2022-12-20T00:58:07.577Z,525.18
2022-12-20T00:58:18.658Z,525.27
2022-12-20T00:58:30.578Z,525.29
2022-12-20T00:58:41.657Z,525.32
2022-12-20T00:58:53.610Z,525.49
2022-12-20T00:59:04.610Z,525.43
2022-12-20T00:59:16.621Z,525.67
2022-12-20T00:59:27.588Z,525.89
2022-12-20T00:59:38.555Z,525.89
2022-12-20T00:59:49.629Z,525.80
2022-12-20T01:00:00.608Z,525.97
2022-12-20T01:00:11.573Z,525.87
2022-12-20T01:00:23.593Z,525.86
2022-12-20T01:00:34.592Z,525.73
2022-12-20T01:00:50.606Z,525.65
2022-12-20T01:00:58.625Z,525.68
2022-12-20T01:01:08.651Z,525.58
2022-12-20T01:01:19.663Z,525.43
2022-12-20T01:01:30.930Z,525.49
2022-12-20T01:01:41.788Z,525.51
2022-12-20T01:01:52.815Z,525.56
2022-12-20T01:02:04.759Z,525.67
2022-12-20T01:02:15.846Z,525.50
2022-12-20T01:02:26.866Z,525.42
2022-12-20T01:02:38.806Z,525.46
2022-12-20T01:02:50.742Z,525.49
2022-12-20T01:03:02.817Z,525.59
2022-12-20T01:03:14.785Z,525.40
2022-12-20T01:03:26.916Z,525.34
2022-12-20T01:03:38.633Z,525.59
2022-12-20T01:03:50.698Z,525.44
2022-12-20T01:04:02.577Z,525.42
2022-12-20T01:04:13.648Z,525.56
2022-12-20T01:04:25.612Z,525.48
2022-12-20T01:04:36.587Z,525.53
2022-12-20T01:04:47.582Z,525.44
2022-12-20T01:04:58.648Z,525.47
2022-12-20T01:05:10.553Z,525.44
2022-12-20T01:05:21.652Z,525.33
2022-12-20T01:05:33.591Z,525.36
2022-12-20T01:05:44.572Z,525.44
2022-12-20T01:05:56.602Z,525.24
2022-12-20T01:06:07.555Z,525.27
2022-12-20T01:06:18.621Z,525.31
2022-12-20T01:06:29.588Z,525.21
2022-12-20T01:06:40.675Z,525.32
2022-12-20T01:06:52.605Z,525.32
2022-12-20T01:07:03.580Z,525.17
2022-12-20T01:07:14.645Z,525.07
2022-12-20T01:07:26.559Z,525.07
2022-12-20T01:07:37.632Z,525.04
2022-12-20T01:07:48.599Z,525.08
2022-12-20T01:08:00.610Z,525.24
2022-12-20T01:08:11.572Z,525.22
2022-12-20T01:08:22.556Z,525.09
2022-12-20T01:08:33.619Z,525.19
2022-12-20T01:08:44.578Z,525.20
2022-12-20T01:08:55.614Z,525.15
2022-12-20T01:09:06.545Z,525.04
2022-12-20T01:09:17.654Z,525.34
2022-12-20T01:09:29.588Z,525.35
2022-12-20T01:09:41.593Z,525.46
2022-12-20T01:09:52.600Z,525.36
2022-12-20T01:10:03.574Z,525.20
2022-12-20T01:10:14.657Z,525.26
2022-12-20T01:10:26.594Z,525.03
2022-12-20T01:10:37.559Z,525.12
2022-12-20T01:10:48.631Z,525.10
2022-12-20T01:10:59.606Z,525.09
2022-12-20T01:11:10.585Z,524.99
2022-12-20T01:11:21.659Z,525.13
2022-12-20T01:11:33.593Z,525.10
2022-12-20T01:11:44.576Z,525.27
2022-12-20T01:11:55.643Z,525.39
2022-12-20T01:12:06.607Z,525.42
2022-12-20T01:12:17.591Z,525.49
2022-12-20T01:12:28.649Z,525.38
2022-12-20T01:12:40.584Z,525.29
2022-12-20T01:12:51.651Z,525.36
2022-12-20T01:13:03.545Z,525.40
2022-12-20T01:13:15.584Z,525.45
2022-12-20T01:13:26.648Z,525.35
2022-12-20T01:13:38.574Z,525.17
2022-12-20T01:13:49.636Z,525.51
2022-12-20T01:14:00.615Z,525.61
2022-12-20T01:14:11.583Z,525.36
2022-12-20T01:14:22.659Z,525.09
2022-12-20T01:14:34.593Z,525.16
2022-12-20T01:14:45.581Z,524.92
2022-12-20T01:14:56.646Z,524.84
2022-12-20T01:15:07.608Z,524.95
2022-12-20T01:15:18.588Z,524.93
2022-12-20T01:15:29.571Z,525.09
2022-12-20T01:15:40.638Z,525.07
2022-12-20T01:15:51.603Z,524.99
2022-12-20T01:16:02.616Z,524.87
2022-12-20T01:16:13.629Z,524.97
2022-12-20T01:16:24.655Z,525.18
2022-12-20T01:16:35.659Z,525.28
2022-12-20T01:16:46.737Z,525.46
2022-12-20T01:16:57.608Z,525.45
2022-12-20T01:17:08.636Z,525.30
2022-12-20T01:17:19.589Z,525.22
2022-12-20T01:17:30.562Z,525.12
2022-12-20T01:17:41.651Z,525.25
2022-12-20T01:17:53.563Z,525.30
2022-12-20T01:18:04.624Z,525.36
2022-12-20T01:18:16.558Z,525.40
2022-12-20T01:18:27.626Z,525.36
2022-12-20T01:18:38.586Z,525.36
2022-12-20T01:18:49.572Z,525.27
2022-12-20T01:19:00.641Z,525.20
2022-12-20T01:19:12.592Z,525.12
2022-12-20T01:19:23.566Z,525.11
2022-12-20T01:19:34.641Z,525.03
2022-12-20T01:19:46.586Z,525.07
2022-12-20T01:19:58.624Z,525.10
2022-12-20T01:20:09.575Z,525.25
2022-12-20T01:20:20.634Z,525.28
2022-12-20T01:20:31.587Z,525.24
2022-12-20T01:20:42.553Z,525.44
2022-12-20T01:20:53.624Z,525.53
2022-12-20T01:21:04.635Z,525.66
2022-12-20T01:21:15.608Z,525.65
2022-12-20T01:21:26.581Z,525.55
2022-12-20T01:21:37.568Z,525.69
2022-12-20T01:21:48.622Z,525.62
2022-12-20T01:21:59.583Z,525.56
2022-12-20T01:22:10.654Z,525.60
2022-12-20T01:22:22.581Z,525.58
2022-12-20T01:22:33.558Z,525.53
2022-12-20T01:22:47.626Z,525.48
2022-12-20T01:22:56.644Z,525.43
2022-12-20T01:23:07.607Z,525.44
2022-12-20T01:23:18.596Z,525.50
2022-12-20T01:23:29.559Z,525.55
2022-12-20T01:23:40.638Z,525.58
2022-12-20T01:23:51.596Z,525.51
2022-12-20T01:24:02.573Z,525.69
2022-12-20T01:24:13.640Z,525.63
2022-12-20T01:24:24.586Z,525.55
2022-12-20T01:24:35.584Z,525.58
2022-12-20T01:24:46.655Z,525.67
2022-12-20T01:24:58.577Z,525.69
2022-12-20T01:25:09.652Z,525.85
2022-12-20T01:25:20.609Z,525.88
2022-12-20T01:25:31.577Z,525.88
2022-12-20T01:25:42.650Z,525.96
2022-12-20T01:25:53.631Z,526.05
2022-12-20T01:26:04.588Z,525.99
2022-12-20T01:26:16.611Z,526.06
2022-12-20T01:26:27.580Z,526.01
2022-12-20T01:26:38.649Z,526.10
2022-12-20T01:26:50.580Z,526.17
2022-12-20T01:27:01.650Z,526.12
2022-12-20T01:27:13.614Z,526.13
2022-12-20T01:27:24.589Z,526.34
2022-12-20T01:27:35.564Z,526.33
2022-12-20T01:27:46.657Z,526.32
2022-12-20T01:27:58.588Z,526.47
2022-12-20T01:28:09.567Z,526.42
2022-12-20T01:28:21.581Z,526.29
2022-12-20T01:28:32.650Z,526.23
2022-12-20T01:28:43.609Z,526.18
2022-12-20T01:28:54.577Z,526.19
2022-12-20T01:29:06.604Z,526.14
2022-12-20T01:29:17.574Z,526.16
2022-12-20T01:29:28.649Z,526.15
2022-12-20T01:29:39.612Z,526.19
2022-12-20T01:29:50.590Z,526.17
2022-12-20T01:30:01.639Z,526.12
2022-12-20T01:30:12.608Z,526.07
2022-12-20T01:30:23.578Z,526.04
2022-12-20T01:30:34.641Z,525.90
2022-12-20T01:30:46.587Z,525.90
2022-12-20T01:30:57.661Z,525.79
2022-12-20T01:31:09.597Z,525.89
2022-12-20T01:31:20.612Z,525.96
2022-12-20T01:31:32.320Z,525.97
2022-12-20T01:31:42.676Z,525.98
2022-12-20T01:31:53.642Z,526.07
2022-12-20T01:32:04.725Z,526.09
2022-12-20T01:32:16.649Z,525.99
2022-12-20T01:32:28.609Z,525.88
2022-12-20T01:32:40.583Z,525.82
2022-12-20T01:32:51.650Z,525.88
2022-12-20T01:33:03.601Z,525.83
2022-12-20T01:33:14.571Z,525.95
2022-12-20T01:33:25.658Z,526.04
2022-12-20T01:33:37.613Z,526.03
2022-12-20T01:33:48.583Z,526.03
2022-12-20T01:33:59.576Z,526.02
2022-12-20T01:34:10.559Z,526.09
2022-12-20T01:34:21.647Z,526.09
2022-12-20T01:34:33.563Z,526.16
2022-12-20T01:34:44.632Z,526.12
2022-12-20T01:34:55.615Z,526.16
2022-12-20T01:35:06.600Z,526.27
2022-12-20T01:35:17.571Z,526.32
2022-12-20T01:35:28.587Z,526.39
2022-12-20T01:35:39.650Z,526.40
2022-12-20T01:35:51.561Z,526.48
2022-12-20T01:36:02.632Z,526.43
2022-12-20T01:36:13.606Z,526.48
2022-12-20T01:36:24.570Z,526.62
2022-12-20T01:36:35.639Z,526.60
2022-12-20T01:36:46.607Z,526.50
2022-12-20T01:36:57.564Z,526.37
2022-12-20T01:37:08.634Z,526.34
2022-12-20T01:37:20.555Z,526.33
2022-12-20T01:37:31.641Z,526.25
2022-12-20T01:37:43.575Z,526.31
2022-12-20T01:37:54.645Z,526.42
2022-12-20T01:38:06.581Z,526.33
2022-12-20T01:38:17.537Z,526.26
2022-12-20T01:38:29.543Z,526.35
2022-12-20T01:38:40.601Z,526.30
2022-12-20T01:38:51.579Z,526.22
2022-12-20T01:39:03.591Z,526.29
2022-12-20T01:39:14.572Z,526.21
2022-12-20T01:39:25.613Z,526.16
2022-12-20T01:39:37.619Z,526.00
2022-12-20T01:39:49.541Z,525.98
2022-12-20T01:40:00.607Z,525.93
2022-12-20T01:40:11.562Z,525.91
2022-12-20T01:40:23.574Z,525.98
2022-12-20T01:40:34.538Z,526.07
2022-12-20T01:40:45.598Z,526.03
2022-12-20T01:40:56.555Z,526.12
2022-12-20T01:41:07.618Z,526.01
2022-12-20T01:41:19.569Z,526.01
2022-12-20T01:41:31.595Z,526.02
2022-12-20T01:41:43.613Z,525.94
2022-12-20T01:41:55.621Z,526.03
2022-12-20T01:42:07.532Z,525.89
2022-12-20T01:42:19.558Z,525.72
2022-12-20T01:42:30.609Z,525.82
2022-12-20T01:42:42.560Z,525.74
2022-12-20T01:42:53.604Z,525.63
2022-12-20T01:43:05.616Z,525.54
2022-12-20T01:43:16.576Z,525.53
2022-12-20T01:43:27.535Z,525.72
2022-12-20T01:43:38.593Z,525.88
2022-12-20T01:43:50.607Z,525.85
2022-12-20T01:44:01.593Z,525.71
2022-12-20T01:44:12.547Z,525.64
2022-12-20T01:44:23.617Z,525.59
2022-12-20T01:44:35.551Z,525.60
2022-12-20T01:44:46.614Z,525.66
2022-12-20T01:44:58.546Z,525.67
2022-12-20T01:45:10.563Z,525.65
2022-12-20T01:45:22.572Z,525.47
2022-12-20T01:45:33.572Z,525.55
2022-12-20T01:45:44.651Z,525.51
2022-12-20T01:45:56.686Z,525.47
2022-12-20T01:46:08.635Z,525.52
2022-12-20T01:46:20.623Z,525.83
2022-12-20T01:46:32.657Z,525.83
2022-12-20T01:46:44.559Z,525.89
2022-12-20T01:46:55.620Z,525.90
2022-12-20T01:47:07.533Z,525.93
2022-12-20T01:47:18.574Z,526.02
2022-12-20T01:47:29.562Z,526.08
2022-12-20T01:47:41.571Z,526.26
2022-12-20T01:47:53.574Z,526.27
2022-12-20T01:48:05.583Z,526.35
2022-12-20T01:48:17.583Z,526.37
2022-12-20T01:48:28.565Z,526.30
2022-12-20T01:48:39.621Z,526.25
2022-12-20T01:48:51.552Z,526.24
2022-12-20T01:49:02.547Z,526.27
2022-12-20T01:49:14.562Z,526.36
2022-12-20T01:49:26.586Z,526.25
2022-12-20T01:49:37.548Z,526.18
2022-12-20T01:49:48.543Z,526.18
2022-12-20T01:49:59.613Z,526.16
2022-12-20T01:50:10.584Z,526.33
2022-12-20T01:50:21.561Z,526.53
2022-12-20T01:50:32.611Z,526.55
2022-12-20T01:50:43.569Z,526.67
2022-12-20T01:50:55.585Z,526.72
2022-12-20T01:51:07.635Z,526.77
2022-12-20T01:51:19.557Z,526.75
2022-12-20T01:51:30.531Z,526.66
2022-12-20T01:51:41.586Z,526.61
2022-12-20T01:51:52.552Z,526.69
2022-12-20T01:52:04.574Z,526.68
2022-12-20T01:52:16.587Z,526.77
2022-12-20T01:52:28.601Z,526.77
2022-12-20T01:52:40.627Z,527.00
2022-12-20T01:52:52.548Z,527.14
2022-12-20T01:53:04.574Z,527.09
2022-12-20T01:53:15.543Z,527.09
2022-12-20T01:53:26.609Z,526.93
2022-12-20T01:53:38.616Z,526.86
2022-12-20T01:53:50.620Z,526.89
2022-12-20T01:54:02.526Z,526.90
2022-12-20T01:54:13.580Z,526.82
2022-12-20T01:54:25.609Z,526.81
2022-12-20T01:54:36.563Z,526.90
2022-12-20T01:54:48.579Z,526.89
2022-12-20T01:55:00.589Z,526.84
2022-12-20T01:55:11.566Z,526.75
2022-12-20T01:55:22.635Z,526.77
2022-12-20T01:55:33.589Z,526.86
2022-12-20T01:55:45.547Z,526.85
2022-12-20T01:55:57.572Z,526.76
2022-12-20T01:56:08.616Z,526.72
2022-12-20T01:56:20.552Z,526.72
2022-12-20T01:56:32.573Z,526.81
2022-12-20T01:56:44.583Z,526.86
2022-12-20T01:56:56.595Z,526.92
2022-12-20T01:57:07.559Z,527.06
2022-12-20T01:57:19.572Z,527.06
2022-12-20T01:57:30.547Z,527.04
2022-12-20T01:57:42.564Z,527.09
2022-12-20T01:57:53.531Z,527.19
2022-12-20T01:58:04.608Z,527.26
2022-12-20T01:58:16.619Z,527.09
2022-12-20T01:58:27.584Z,527.16
2022-12-20T01:58:38.569Z,527.27
2022-12-20T01:58:49.530Z,527.37
2022-12-20T01:59:00.570Z,527.35
2022-12-20T01:59:12.585Z,527.34
2022-12-20T01:59:24.597Z,527.45
2022-12-20T01:59:36.635Z,527.53
2022-12-20T01:59:47.582Z,527.52
2022-12-20T01:59:58.543Z,527.45
2022-12-20T02:00:10.559Z,527.42
2022-12-20T02:00:22.563Z,527.25
2022-12-20T02:00:33.550Z,527.27
2022-12-20T02:00:44.659Z,527.16
2022-12-20T02:00:56.705Z,527.28
2022-12-20T02:01:07.618Z,527.33
2022-12-20T02:01:18.681Z,527.33
2022-12-20T02:01:29.608Z,527.31
2022-12-20T02:01:40.703Z,527.37
2022-12-20T02:01:52.734Z,527.45
2022-12-20T02:02:04.832Z,527.38
2022-12-20T02:02:15.634Z,527.36
2022-12-20T02:02:26.698Z,527.32
2022-12-20T02:02:38.746Z,527.18
2022-12-20T02:02:49.676Z,527.16
2022-12-20T02:03:00.771Z,527.20
2022-12-20T02:03:12.762Z,527.18
2022-12-20T02:03:24.700Z,527.09
2022-12-20T02:03:36.600Z,527.13
2022-12-20T02:03:48.548Z,527.04
2022-12-20T02:04:00.562Z,527.00
2022-12-20T02:04:11.535Z,526.85
2022-12-20T02:04:22.588Z,526.84
2022-12-20T02:04:33.545Z,526.93
2022-12-20T02:04:44.615Z,526.82
2022-12-20T02:04:56.624Z,526.75
2022-12-20T02:05:07.564Z,526.77
2022-12-20T02:05:19.618Z,526.77
2022-12-20T02:05:31.618Z,526.60
2022-12-20T02:05:42.577Z,526.50
2022-12-20T02:05:54.606Z,526.58
2022-12-20T02:06:05.558Z,526.70
2022-12-20T02:06:16.559Z,526.73
2022-12-20T02:06:28.577Z,526.76
2022-12-20T02:06:39.564Z,526.82
2022-12-20T02:06:50.526Z,526.98
2022-12-20T02:07:01.564Z,527.14
2022-12-20T02:07:13.567Z,527.25
2022-12-20T02:07:25.594Z,527.37
2022-12-20T02:07:36.547Z,527.51
2022-12-20T02:07:48.564Z,527.63
2022-12-20T02:08:00.574Z,527.60
2022-12-20T02:08:11.535Z,527.57
2022-12-20T02:08:22.570Z,527.66
2022-12-20T02:08:34.586Z,527.68
2022-12-20T02:08:45.553Z,527.80
2022-12-20T02:08:57.572Z,527.83
2022-12-20T02:09:09.602Z,528.01
2022-12-20T02:09:20.556Z,528.13
2022-12-20T02:09:31.624Z,528.15
2022-12-20T02:09:43.548Z,528.06
2022-12-20T02:09:54.537Z,528.20
2022-12-20T02:10:05.610Z,528.25
2022-12-20T02:10:16.580Z,528.27
2022-12-20T02:10:27.558Z,528.27
2022-12-20T02:10:38.615Z,528.32
2022-12-20T02:10:50.530Z,528.30
2022-12-20T02:11:01.590Z,528.18
2022-12-20T02:11:13.610Z,527.97
2022-12-20T02:11:24.576Z,527.88
2022-12-20T02:11:36.595Z,527.91
2022-12-20T02:11:47.598Z,527.79
2022-12-20T02:11:58.548Z,527.71
2022-12-20T02:12:09.624Z,527.89
2022-12-20T02:12:20.625Z,528.04
2022-12-20T02:12:31.581Z,528.20
2022-12-20T02:12:42.539Z,528.23
2022-12-20T02:12:53.587Z,528.18
2022-12-20T02:13:05.630Z,528.15
2022-12-20T02:13:17.555Z,528.22
2022-12-20T02:13:28.643Z,528.22
2022-12-20T02:13:40.551Z,528.28
2022-12-20T02:13:51.613Z,528.17
2022-12-20T02:14:03.566Z,528.09
2022-12-20T02:14:15.574Z,528.03
2022-12-20T02:14:26.544Z,528.01
2022-12-20T02:14:37.597Z,528.11
2022-12-20T02:14:49.608Z,528.17
2022-12-20T02:15:01.530Z,528.28
2022-12-20T02:15:12.608Z,528.24
2022-12-20T02:15:23.563Z,528.45
2022-12-20T02:15:35.574Z,528.54
2022-12-20T02:15:46.528Z,528.63
2022-12-20T02:15:57.615Z,528.73
2022-12-20T02:16:08.593Z,528.81
2022-12-20T02:16:19.605Z,528.95
2022-12-20T02:16:31.682Z,528.88
2022-12-20T02:16:42.575Z,529.15
2022-12-20T02:16:53.682Z,529.32
2022-12-20T02:17:05.630Z,529.29
2022-12-20T02:17:16.553Z,529.26
2022-12-20T02:17:27.625Z,529.38
2022-12-20T02:17:39.546Z,529.24
2022-12-20T02:17:51.560Z,529.29
2022-12-20T02:18:03.571Z,529.32
2022-12-20T02:18:15.599Z,529.52
2022-12-20T02:18:26.551Z,529.56
2022-12-20T02:18:37.621Z,529.50
2022-12-20T02:18:49.529Z,529.56
2022-12-20T02:19:00.612Z,529.70
2022-12-20T02:19:12.614Z,529.70
2022-12-20T02:19:24.528Z,529.65
2022-12-20T02:19:35.585Z,529.61
2022-12-20T02:19:47.606Z,529.62
2022-12-20T02:19:58.570Z,529.47
2022-12-20T02:20:10.575Z,529.47
2022-12-20T02:20:22.593Z,529.44
2022-12-20T02:20:34.619Z,529.58
2022-12-20T02:20:46.523Z,529.61
2022-12-20T02:20:57.571Z,529.53